Time;durP1;ratioP1;P1;durP2;ratioP2;P2;SDS_P1;SDS_P2;PMS_P1;PMS_P2;Temp;Humidity;BMP_temperature;BMP_pressure;BME280_temperature;BME280_humidity;BME280_pressure;Samples;Min_cycle;Max_cycle;Signal;HPM_P1;HPM_P2
2022/08/13 08:01:20;;;;;;;6.68;2.97;;;;;;;23.51;41.73;101504.09;5279762;28;20394;-75
2022/08/13 08:03:54;;;;;;;6.30;3.10;;;;;;;23.65;42.45;101496.81;5280172;28;20029;-75
2022/08/13 08:06:26;;;;;;;5.70;3.50;;;;;;;23.69;41.58;101504.56;5268331;28;20017;-74
2022/08/13 08:08:58;;;;;;;6.38;3.40;;;;;;;23.76;42.18;101502.78;5274516;28;20056;-75
2022/08/13 08:14:19;;;;;;;4.00;2.85;;;;;;;23.98;41.85;101494.84;5259374;28;20025;-76
2022/08/13 08:16:50;;;;;;;5.90;3.53;;;;;;;24.05;40.64;101507.16;5259379;28;20021;-71
2022/08/13 08:19:22;;;;;;;7.90;3.00;;;;;;;24.09;39.97;101501.63;5259248;28;20036;-72
2022/08/13 08:21:59;;;;;;;54.47;49.72;;;;;;;24.13;40.08;101508.16;5258069;28;20025;-76
2022/08/13 08:24:32;;;;;;;35.17;31.98;;;;;;;24.25;39.63;101510.09;5259198;28;20021;-71
2022/08/13 08:27:11;;;;;;;5.25;3.65;;;;;;;24.44;39.75;101509.31;5259182;28;20029;-73
2022/08/13 08:29:44;;;;;;;4.68;2.53;;;;;;;24.49;39.24;101509.06;5264078;28;20375;-74
2022/08/13 08:32:16;;;;;;;9.73;2.70;;;;;;;24.50;38.89;101510.72;5279233;28;20027;-73
2022/08/13 08:34:49;;;;;;;9.93;2.80;;;;;;;24.61;38.68;101506.13;5278837;28;20423;-76
2022/08/13 08:43:04;;;;;;;4.68;2.53;;;;;;;24.93;39.14;101509.69;5257912;28;20041;-73
2022/08/13 08:45:35;;;;;;;3.30;2.50;;;;;;;25.01;38.80;101507.81;5258380;28;20021;-74
2022/08/13 08:48:06;;;;;;;2.67;2.40;;;;;;;24.98;38.54;101513.41;5258718;28;20116;-75
2022/08/13 08:50:38;;;;;;;3.90;2.17;;;;;;;25.15;38.49;101508.09;5244414;28;20032;-76
2022/08/13 08:53:19;;;;;;;3.65;3.08;;;;;;;25.25;38.15;101511.56;5238489;28;20022;-76
2022/08/13 08:55:52;;;;;;;3.42;2.55;;;;;;;25.34;38.15;101509.34;5237458;28;20821;-73
2022/08/13 08:58:24;;;;;;;5.57;2.65;;;;;;;25.50;37.97;101507.22;5237750;28;20026;-71
2022/08/13 09:00:56;;;;;;;7.50;3.00;;;;;;;25.57;38.21;101512.22;5239919;28;20029;-73
2022/08/13 09:03:28;;;;;;;5.47;2.20;;;;;;;25.78;37.78;101517.47;5256922;28;20380;-70
2022/08/13 09:06:00;;;;;;;4.07;2.30;;;;;;;25.82;36.97;101509.81;5248973;28;20013;-73
2022/08/13 09:08:35;;;;;;;3.70;2.17;;;;;;;25.79;37.11;101502.06;5237693;28;20045;-74
2022/08/13 09:11:07;;;;;;;4.45;2.70;;;;;;;25.85;36.89;101509.13;5231745;28;20497;-75
2022/08/13 09:13:38;;;;;;;6.53;3.50;;;;;;;25.94;37.10;101506.81;5223524;28;20056;-74
2022/08/13 09:16:10;;;;;;;9.07;7.13;;;;;;;26.06;36.34;101505.00;5223431;28;20076;-74
2022/08/13 09:18:43;;;;;;;6.63;3.03;;;;;;;26.06;36.55;101505.81;5233048;28;20460;-75
2022/08/13 09:21:15;;;;;;;3.30;2.15;;;;;;;26.29;36.72;101494.41;5243753;28;20029;-74
2022/08/13 09:23:46;;;;;;;4.15;2.53;;;;;;;26.28;36.37;101501.31;5243404;28;20017;-73
2022/08/13 09:26:20;;;;;;;5.95;1.92;;;;;;;26.40;35.57;101498.22;5243884;28;20101;-75
2022/08/13 09:28:55;;;;;;;8.07;5.82;;;;;;;26.51;34.90;101500.41;5230043;28;20386;-74
2022/08/13 09:31:29;;;;;;;5.10;2.63;;;;;;;26.45;34.55;101500.75;5222503;28;20022;-76
2022/08/13 09:34:02;;;;;;;8.73;7.80;;;;;;;26.52;34.41;101504.91;5222971;28;20026;-74
2022/08/13 09:36:35;;;;;;;6.75;2.97;;;;;;;26.61;34.81;101494.09;5238812;28;20032;-74
2022/08/13 09:39:06;;;;;;;3.30;2.50;;;;;;;26.93;34.44;101493.75;5240844;28;20390;-73
2022/08/13 09:41:51;;;;;;;3.28;2.50;;;;;;;26.98;34.27;101488.50;5223245;28;20029;-75
2022/08/13 09:44:26;;;;;;;3.92;2.42;;;;;;;26.98;33.53;101487.69;5223211;28;20389;-76
2022/08/13 09:46:59;;;;;;;3.15;2.20;;;;;;;27.09;34.21;101482.94;5222692;28;20033;-75
2022/08/13 09:49:31;;;;;;;6.65;2.20;;;;;;;27.20;33.90;101486.78;5222621;28;20056;-76
2022/08/13 09:52:02;;;;;;;5.35;1.92;;;;;;;27.31;32.74;101487.72;5225491;28;20053;-77
2022/08/13 09:54:34;;;;;;;4.30;1.88;;;;;;;27.32;32.33;101494.22;5243265;28;20115;-76
2022/08/13 09:57:06;;;;;;;22.77;20.40;;;;;;;27.38;32.70;101483.31;5243741;28;20026;-77
2022/08/13 09:59:38;;;;;;;4.55;3.35;;;;;;;27.52;32.68;101480.63;5243043;28;20034;-77
2022/08/13 10:02:11;;;;;;;3.53;2.50;;;;;;;27.53;32.38;101480.25;5242345;28;20084;-75
2022/08/13 10:04:42;;;;;;;5.35;4.88;;;;;;;27.67;31.84;101473.03;5242742;28;20029;-77
2022/08/13 10:07:14;;;;;;;2.53;1.73;;;;;;;27.75;31.93;101463.34;5242269;28;20482;-74
2022/08/13 10:09:49;;;;;;;5.13;3.28;;;;;;;27.79;31.56;101467.06;5243141;28;20040;-74
2022/08/13 10:12:20;;;;;;;3.45;2.25;;;;;;;27.96;31.02;101465.59;5243293;28;20468;-74
2022/08/13 10:14:51;;;;;;;3.67;2.20;;;;;;;27.69;30.20;101459.22;5242391;28;20072;-74
2022/08/13 10:17:27;;;;;;;4.82;2.03;;;;;;;27.78;29.99;101462.56;5243066;28;20024;-73
2022/08/13 10:19:58;;;;;;;2.22;1.95;;;;;;;27.80;30.73;101456.47;5221650;28;20040;-76
2022/08/13 10:22:29;;;;;;;2.10;1.60;;;;;;;27.88;29.99;101456.16;5221576;28;20018;-71
2022/08/13 10:25:01;;;;;;;5.38;1.73;;;;;;;28.09;29.45;101452.66;5221798;28;20076;-71
2022/08/13 10:27:35;;;;;;;5.80;1.70;;;;;;;28.11;29.32;101460.81;5233737;28;20033;-71
2022/08/13 10:30:07;;;;;;;5.47;4.93;;;;;;;28.28;28.94;101450.78;5240435;28;20041;-72
2022/08/13 10:32:40;;;;;;;3.25;2.22;;;;;;;28.33;28.31;101454.06;5242002;28;20038;-72
2022/08/13 10:35:12;;;;;;;4.35;1.88;;;;;;;28.40;27.76;101458.97;5241502;28;20029;-71
2022/08/13 10:37:53;;;;;;;1.85;1.42;;;;;;;28.44;27.79;101459.03;5242787;28;20021;-71
2022/08/13 10:40:25;;;;;;;18.63;16.75;;;;;;;28.48;28.06;101455.00;5242483;28;20053;-74
2022/08/13 10:42:56;;;;;;;5.00;2.15;;;;;;;28.69;28.36;101451.44;5241746;28;20388;-74
2022/08/13 10:45:29;;;;;;;5.60;1.73;;;;;;;28.45;28.10;101444.38;5242212;28;20025;-74
2022/08/13 10:48:01;;;;;;;2.13;1.50;;;;;;;28.61;28.13;101446.94;5242041;28;20029;-75
2022/08/13 10:50:32;;;;;;;5.05;2.05;;;;;;;28.63;28.28;101438.75;5242099;28;20072;-74
2022/08/13 10:53:04;;;;;;;4.18;2.17;;;;;;;28.88;28.25;101438.88;5242605;28;20056;-76
2022/08/13 10:55:35;;;;;;;4.38;1.80;;;;;;;29.07;27.53;101442.63;5241061;28;20037;-74
2022/08/13 10:58:11;;;;;;;3.05;1.40;;;;;;;29.03;26.78;101440.56;5242090;28;20060;-74
2022/08/13 11:00:45;;;;;;;2.90;1.60;;;;;;;28.94;26.89;101439.31;5242064;28;20461;-76
2022/08/13 11:03:17;;;;;;;4.47;1.50;;;;;;;29.06;27.33;101446.72;5241032;28;20029;-74
2022/08/13 11:05:48;;;;;;;2.03;1.65;;;;;;;29.15;27.11;101441.47;5234513;28;20025;-74
2022/08/13 11:08:20;;;;;;;1.70;1.35;;;;;;;29.06;26.84;101443.88;5221012;28;20052;-72
2022/08/13 11:10:51;;;;;;;2.17;1.40;;;;;;;29.30;27.20;101439.44;5226190;28;20036;-76
2022/08/13 11:13:23;;;;;;;4.63;2.60;;;;;;;29.26;27.41;101437.41;5238374;28;20061;-76
2022/08/13 11:15:54;;;;;;;2.30;2.10;;;;;;;29.20;27.42;101438.22;5262679;28;20395;-74
2022/08/13 11:18:27;;;;;;;4.15;1.40;;;;;;;29.19;26.93;101428.00;5249712;28;20101;-75
2022/08/13 11:21:02;;;;;;;1.80;1.65;;;;;;;29.24;27.53;101425.56;5237911;28;20392;-75
2022/08/13 11:23:34;;;;;;;3.75;1.55;;;;;;;29.29;27.85;101426.38;5219718;28;20072;-77
2022/08/13 11:26:06;;;;;;;3.83;1.50;;;;;;;29.29;27.67;101417.81;5235266;28;20079;-77
2022/08/13 11:28:37;;;;;;;2.38;1.63;;;;;;;29.53;25.65;101417.06;5230820;28;20431;-78
2022/08/13 11:31:08;;;;;;;2.63;1.65;;;;;;;29.64;25.97;101417.88;5238653;28;20060;-74
2022/08/13 11:33:40;;;;;;;2.53;1.23;;;;;;;29.71;25.49;101417.09;5239926;28;20021;-75
2022/08/13 11:36:11;;;;;;;1.70;1.60;;;;;;;29.81;25.88;101415.44;5240150;28;20033;-75
2022/08/13 11:38:42;;;;;;;2.47;1.60;;;;;;;29.90;26.84;101413.81;5237564;28;20025;-75
2022/08/13 11:41:14;;;;;;;5.85;4.82;;;;;;;29.59;25.94;101414.59;5235945;28;20041;-74
2022/08/13 11:43:47;;;;;;;3.63;1.73;;;;;;;29.83;26.40;101408.09;5240588;28;20033;-76
2022/08/13 11:46:20;;;;;;;3.53;1.35;;;;;;;29.93;27.34;101406.44;5240479;28;20029;-75
2022/08/13 11:48:51;;;;;;;4.80;3.55;;;;;;;30.05;26.50;101408.06;5241817;28;20072;-75
2022/08/13 11:51:28;;;;;;;2.42;1.23;;;;;;;30.00;25.94;101405.63;5240882;28;20025;-74
2022/08/13 11:54:00;;;;;;;3.55;2.00;;;;;;;30.19;26.88;101410.09;5237906;28;20052;-74
2022/08/13 11:56:31;;;;;;;3.05;1.80;;;;;;;30.18;26.05;101408.47;5238891;28;20468;-73
2022/08/13 11:59:08;;;;;;;3.45;3.17;;;;;;;30.37;26.31;101405.16;5240739;28;20034;-71
2022/08/13 12:01:39;;;;;;;2.92;1.50;;;;;;;30.36;25.78;101411.31;5241519;28;20042;-74
2022/08/13 12:04:12;;;;;;;2.63;1.77;;;;;;;30.34;26.07;101408.84;5246113;28;20033;-71
2022/08/13 12:06:44;;;;;;;3.97;1.60;;;;;;;30.46;25.66;101407.59;5246764;28;20030;-71
2022/08/13 12:09:24;;;;;;;4.68;1.60;;;;;;;30.55;25.52;101408.81;5244183;28;20441;-71
2022/08/13 12:11:55;;;;;;;2.63;2.10;;;;;;;30.63;25.82;101401.00;5248937;28;20025;-71
2022/08/13 12:14:26;;;;;;;2.72;1.70;;;;;;;30.70;26.33;101403.81;5234091;28;20048;-71
2022/08/13 12:16:58;;;;;;;3.00;1.85;;;;;;;30.66;25.52;101402.22;5231068;28;20018;-71
2022/08/13 12:19:29;;;;;;;3.88;2.05;;;;;;;30.79;26.13;101399.72;5231689;28;20030;-72
2022/08/13 12:22:00;;;;;;;3.25;1.40;;;;;;;30.71;25.30;101396.88;5234678;28;20026;-72
2022/08/13 12:24:32;;;;;;;3.75;1.60;;;;;;;30.82;24.96;101404.63;5234133;28;20113;-71
2022/08/13 12:27:04;;;;;;;4.32;1.73;;;;;;;30.96;25.32;101393.09;5233548;28;20068;-71
2022/08/13 12:29:35;;;;;;;3.10;1.80;;;;;;;30.90;25.02;101397.63;5238007;28;20030;-71
2022/08/13 12:32:06;;;;;;;2.83;1.40;;;;;;;30.90;24.59;101398.44;5236323;28;20029;-70
2022/08/13 12:34:38;;;;;;;2.30;2.00;;;;;;;30.90;25.54;101375.53;5233489;28;20460;-70
2022/08/13 12:37:09;;;;;;;4.50;1.77;;;;;;;30.77;25.64;101374.34;5231940;28;20030;-71
2022/08/13 12:39:40;;;;;;;3.15;1.67;;;;;;;30.90;25.99;101383.31;5242422;28;20452;-71
2022/08/13 12:42:12;;;;;;;4.40;1.73;;;;;;;30.78;25.21;101373.09;5234328;28;20404;-74
2022/08/13 12:44:43;;;;;;;4.10;1.70;;;;;;;30.61;25.55;101371.16;5231479;28;20152;-74
2022/08/13 12:47:14;;;;;;;2.50;1.73;;;;;;;30.89;26.10;101367.38;5232154;28;20116;-72
2022/08/13 12:49:46;;;;;;;1.80;1.60;;;;;;;31.10;25.29;101370.09;5234329;28;20073;-73
2022/08/13 12:52:23;;;;;;;3.33;1.70;;;;;;;31.40;26.32;101371.56;5233555;28;20476;-75
2022/08/13 12:54:55;;;;;;;3.53;1.60;;;;;;;31.47;24.85;101370.69;5231912;28;20034;-75
2022/08/13 12:57:26;;;;;;;2.55;1.90;;;;;;;31.54;24.56;101362.84;5232630;28;20433;-75
2022/08/13 12:59:57;;;;;;;6.95;1.63;;;;;;;31.56;24.32;101366.09;5234239;28;20025;-74
2022/08/13 13:02:29;;;;;;;4.93;1.85;;;;;;;31.58;24.59;101363.63;5232716;28;20017;-74
2022/08/13 13:05:02;;;;;;;2.38;1.50;;;;;;;31.74;24.34;101368.00;5233654;28;20461;-75
2022/08/13 13:07:33;;;;;;;6.70;5.18;;;;;;;31.91;23.96;101363.34;5233418;28;20431;-76
2022/08/13 13:10:05;;;;;;;19.40;12.70;;;;;;;31.75;23.72;101358.16;5243148;22;20053;-75
2022/08/13 13:12:36;;;;;;;2.53;2.22;;;;;;;31.64;23.75;101346.78;5241747;28;20029;-76
2022/08/13 13:15:08;;;;;;;3.83;2.15;;;;;;;31.58;23.12;101357.91;5242263;28;20049;-76
2022/08/13 13:17:43;;;;;;;4.20;1.92;;;;;;;32.01;23.43;101357.53;5241687;28;20025;-76
2022/08/13 13:20:17;;;;;;;4.65;3.15;;;;;;;32.08;23.02;101352.94;5244919;28;20025;-74
2022/08/13 13:22:48;;;;;;;4.50;1.60;;;;;;;31.97;22.89;101347.31;5242378;28;20095;-73
2022/08/13 13:25:19;;;;;;;3.83;1.63;;;;;;;32.01;22.77;101350.97;5245064;28;20021;-74
2022/08/13 13:27:51;;;;;;;5.63;4.03;;;;;;;32.26;22.88;101342.06;5243287;28;20076;-73
2022/08/13 13:30:22;;;;;;;8.57;2.90;;;;;;;32.29;23.08;101341.22;5242287;28;20056;-71
2022/08/13 13:32:55;;;;;;;3.10;1.70;;;;;;;32.21;22.41;101336.78;5241925;28;20089;-73
2022/08/13 13:35:27;;;;;;;3.30;3.08;;;;;;;32.34;22.94;101343.63;5241953;28;20069;-76
2022/08/13 13:37:58;;;;;;;3.42;1.80;;;;;;;32.42;23.26;101330.81;5241834;28;20420;-74
2022/08/13 13:40:30;;;;;;;3.88;1.80;;;;;;;32.56;23.23;101326.97;5242310;28;20468;-73
2022/08/13 13:43:02;;;;;;;6.47;2.40;;;;;;;32.55;23.76;101322.47;5240008;28;20044;-75
2022/08/13 13:45:35;;;;;;;2.65;1.50;;;;;;;32.72;23.92;101323.44;5241501;28;20021;-75
2022/08/13 13:48:27;;;;;;;3.50;2.13;;;;;;;32.91;22.95;101324.84;5242588;28;20445;-76
2022/08/13 13:51:19;;;;;;;3.50;1.60;;;;;;;32.95;23.00;101316.16;5240967;28;20020;-79
2022/08/13 13:53:50;;;;;;;4.15;1.80;;;;;;;32.85;22.85;101318.78;5240640;28;20030;-77
2022/08/13 13:56:22;;;;;;;1.65;1.55;;;;;;;32.51;22.25;101313.09;5239676;28;20022;-77
2022/08/13 13:58:54;;;;;;;5.18;2.13;;;;;;;32.66;22.92;101308.78;5241029;28;20013;-75
2022/08/13 14:01:25;;;;;;;4.25;2.92;;;;;;;32.73;22.43;101302.13;5244097;28;20056;-74
2022/08/13 14:04:37;;;;;;;1.92;1.60;;;;;;;32.81;22.33;101308.56;5249206;22;20052;-76
2022/08/13 14:07:11;;;;;;;6.30;4.95;;;;;;;32.85;22.46;101310.16;5239377;28;20033;-72
2022/08/13 14:09:56;;;;;;;2.47;1.73;;;;;;;32.61;22.39;101288.34;5241573;28;20025;-73
2022/08/13 14:12:30;;;;;;;;;;;;;;;33.07;22.51;101296.28;5243290;28;20091;-72
2022/08/13 14:15:07;;;;;;;3.22;1.60;;;;;;;33.00;22.82;101292.69;5243749;28;19917;-74
2022/08/13 14:17:39;;;;;;;2.33;1.75;;;;;;;32.88;22.01;101286.31;5243384;28;20083;-69
2022/08/13 14:20:13;;;;;;;5.35;1.63;;;;;;;33.01;22.06;101288.59;5262134;28;20029;-69
2022/08/13 14:22:44;;;;;;;8.50;4.65;;;;;;;33.03;21.74;101291.84;5246698;28;20026;-68
2022/08/13 14:25:17;;;;;;;2.63;1.98;;;;;;;32.98;21.23;101286.56;5242534;28;20099;-73
2022/08/13 14:27:49;;;;;;;4.45;1.80;;;;;;;33.03;21.42;101277.47;5245914;28;20029;-74
2022/08/13 14:30:20;;;;;;;3.65;1.52;;;;;;;33.10;21.21;101275.31;5242980;28;20120;-72
2022/08/13 14:32:53;;;;;;;2.47;1.55;;;;;;;33.06;22.83;101274.56;5243019;28;20084;-75
2022/08/13 14:35:27;;;;;;;3.17;2.47;;;;;;;33.14;21.82;101281.00;5242569;28;20022;-75
2022/08/13 14:37:59;;;;;;;3.80;1.50;;;;;;;33.17;21.69;101280.13;5243223;28;20083;-74
2022/08/13 14:40:30;;;;;;;3.30;1.73;;;;;;;33.03;21.56;101271.72;5242223;28;20029;-74
2022/08/13 14:43:02;;;;;;;3.03;1.30;;;;;;;32.97;21.58;101271.38;5242202;28;20108;-74
2022/08/13 14:45:42;;;;;;;3.17;1.60;;;;;;;32.81;21.54;101266.31;5231810;28;20022;-73
2022/08/13 14:48:19;;;;;;;5.28;2.17;;;;;;;33.01;21.54;101265.59;5244484;28;20055;-74
2022/08/13 14:53:25;;;;;;;2.30;1.40;;;;;;;33.02;21.76;101258.63;5268551;22;20060;-70
2022/08/13 14:55:58;;;;;;;5.35;1.67;;;;;;;32.89;22.10;101252.66;5256905;28;20032;-74
2022/08/13 14:58:30;;;;;;;2.53;1.77;;;;;;;32.76;21.48;101255.31;5252733;28;20076;-74
2022/08/13 15:01:02;;;;;;;3.90;2.72;;;;;;;32.76;21.70;101251.63;5243781;28;20480;-75
2022/08/13 15:03:36;;;;;;;4.32;1.90;;;;;;;32.65;21.75;101249.75;5245583;28;20532;-72
2022/08/13 15:06:07;;;;;;;2.47;1.80;;;;;;;32.69;21.46;101244.72;5244201;28;20060;-73
2022/08/13 15:08:38;;;;;;;2.22;1.42;;;;;;;32.41;21.61;101248.81;5258162;28;20059;-73
2022/08/13 15:11:24;;;;;;;3.42;2.03;;;;;;;32.37;21.87;101239.44;5243853;28;20021;-74
2022/08/13 15:13:56;;;;;;;2.80;1.80;;;;;;;32.30;22.25;101235.88;5241578;28;20362;-74
2022/08/13 15:16:28;;;;;;;2.40;1.67;;;;;;;32.26;22.32;101227.28;5239035;28;20029;-74
2022/08/13 15:19:00;;;;;;;4.43;2.30;;;;;;;32.43;23.12;101229.09;5254019;28;20067;-75
2022/08/13 15:21:32;;;;;;;2.90;2.50;;;;;;;32.24;22.47;101226.94;5261531;28;20029;-74
2022/08/13 15:24:03;;;;;;;3.10;2.00;;;;;;;32.15;22.05;101218.84;5258877;28;20032;-74
2022/08/13 15:26:39;;;;;;;2.92;2.20;;;;;;;32.13;23.04;101223.38;5245199;28;20033;-73
2022/08/13 15:29:10;;;;;;;2.72;1.67;;;;;;;32.10;23.31;101216.44;5241905;28;20040;-73
2022/08/13 15:31:45;;;;;;;2.70;1.65;;;;;;;32.08;22.80;101209.50;5240190;28;20029;-72
2022/08/13 15:34:17;;;;;;;2.97;1.65;;;;;;;32.13;22.84;101220.50;5240050;28;20544;-73
2022/08/13 15:36:48;;;;;;;4.53;2.05;;;;;;;32.08;22.39;101206.63;5238963;28;20117;-73
2022/08/13 15:39:20;;;;;;;3.97;1.83;;;;;;;32.09;22.57;101211.16;5241471;28;20417;-73
2022/08/13 15:42:04;;;;;;;2.83;1.65;;;;;;;32.08;22.98;101207.44;5241815;28;20022;-72
2022/08/13 15:44:35;;;;;;;3.00;2.13;;;;;;;32.03;22.80;101208.75;5237169;28;20109;-73
2022/08/13 15:47:14;;;;;;;1.75;1.65;;;;;;;31.89;22.15;101206.03;5220965;28;20076;-73
2022/08/13 15:49:50;;;;;;;3.40;1.65;;;;;;;31.94;22.71;101204.78;5250519;28;20550;-73
2022/08/13 15:52:23;;;;;;;1.80;1.70;;;;;;;31.76;22.26;101200.03;5240587;28;20045;-74
2022/08/13 15:54:56;;;;;;;2.28;1.73;;;;;;;31.85;22.77;101193.78;5246375;28;20446;-74
2022/08/13 15:57:31;;;;;;;3.75;1.90;;;;;;;31.82;22.76;101183.97;5241676;28;20036;-76
2022/08/13 16:00:04;;;;;;;3.42;1.58;;;;;;;31.78;22.96;101174.63;5242389;28;20032;-74
2022/08/13 16:02:36;;;;;;;1.85;1.63;;;;;;;31.84;23.00;101174.97;5259968;28;20040;-73
2022/08/13 16:05:08;;;;;;;3.50;2.28;;;;;;;31.89;23.40;101174.50;5261278;28;20372;-72
2022/08/13 16:07:41;;;;;;;4.72;1.98;;;;;;;31.92;23.01;101179.34;5248263;28;20053;-74
2022/08/13 16:10:13;;;;;;;4.07;1.63;;;;;;;31.98;23.37;101182.59;5242960;28;20028;-75
2022/08/13 16:12:44;;;;;;;4.18;2.30;;;;;;;31.75;23.25;101174.66;5253227;28;20060;-76
2022/08/13 16:15:15;;;;;;;3.72;1.80;;;;;;;31.78;24.28;101168.91;5255574;28;20041;-75
2022/08/13 16:17:47;;;;;;;2.80;1.98;;;;;;;31.77;22.92;101169.31;5241142;28;20143;-75
2022/08/13 16:20:21;;;;;;;4.75;1.85;;;;;;;31.59;23.31;101161.75;5251478;28;20427;-76
2022/08/13 16:22:59;;;;;;;2.28;2.03;;;;;;;31.65;23.13;101164.13;5249347;28;20108;-76
2022/08/13 16:25:32;;;;;;;2.97;1.98;;;;;;;31.59;23.96;101156.00;5245282;28;20018;-75
2022/08/13 16:28:06;;;;;;;2.70;1.70;;;;;;;31.60;23.51;101151.91;5244492;28;20037;-76
2022/08/13 16:30:40;;;;;;;4.65;1.98;;;;;;;31.71;23.80;101153.84;5250514;28;20033;-77
2022/08/13 16:33:13;;;;;;;4.22;2.17;;;;;;;31.66;24.37;101157.19;5246382;28;20026;-76
2022/08/13 16:35:46;;;;;;;2.25;1.50;;;;;;;31.83;23.48;101151.22;5246325;28;20088;-76
2022/08/13 16:38:17;;;;;;;5.07;2.83;;;;;;;31.79;23.49;101149.63;5261992;28;20032;-77
2022/08/13 16:40:53;;;;;;;2.72;1.77;;;;;;;31.78;23.43;101139.41;5259239;28;20027;-77
2022/08/13 16:43:25;;;;;;;3.63;1.85;;;;;;;31.66;24.50;101142.84;5251532;28;20041;-76
2022/08/13 16:45:57;;;;;;;4.90;2.08;;;;;;;31.82;24.26;101140.16;5230704;28;20461;-77
2022/08/13 16:48:29;;;;;;;3.83;2.10;;;;;;;31.94;23.80;101148.22;5223600;28;20097;-77
2022/08/13 16:51:01;;;;;;;3.15;2.35;;;;;;;31.81;23.63;101132.81;5224419;28;20553;-77
2022/08/13 16:53:32;;;;;;;3.10;2.65;;;;;;;31.79;24.17;101129.56;5223976;28;20382;-76
2022/08/13 16:56:06;;;;;;;4.80;3.50;;;;;;;31.72;23.14;101129.66;5231230;28;20043;-76
2022/08/13 16:58:38;;;;;;;4.07;2.20;;;;;;;31.65;23.10;101129.75;5243839;28;20464;-76
2022/08/13 17:01:10;;;;;;;4.00;2.22;;;;;;;31.65;22.87;101119.09;5255402;28;20402;-77
2022/08/13 17:09:24;;;;;;;2.85;2.47;;;;;;;31.91;22.83;101105.25;5242212;28;20037;-75
2022/08/13 17:11:58;;;;;;;3.17;1.95;;;;;;;31.88;23.45;101115.53;5244920;28;20036;-75
2022/08/13 17:14:31;;;;;;;3.93;2.53;;;;;;;31.91;23.96;101114.66;5247159;28;20037;-75
2022/08/13 17:17:03;;;;;;;2.40;2.15;;;;;;;31.88;23.72;101112.66;5238164;28;20280;-76
2022/08/13 17:19:34;;;;;;;2.10;1.77;;;;;;;32.13;23.63;101114.38;5244201;28;20384;-73
2022/08/13 17:22:09;;;;;;;5.38;1.83;;;;;;;31.88;24.42;101114.69;5252870;28;20025;-77
2022/08/13 17:24:41;;;;;;;3.45;1.73;;;;;;;31.91;23.47;101110.97;5257721;28;20021;-76
2022/08/13 17:27:13;;;;;;;2.35;1.98;;;;;;;31.74;24.06;101109.97;5244041;28;20033;-77
2022/08/13 17:29:48;;;;;;;2.38;2.05;;;;;;;31.71;23.95;101105.91;5255106;28;20444;-75
2022/08/13 17:32:21;;;;;;;3.38;1.90;;;;;;;31.58;25.67;101099.94;5243391;28;20025;-76
